createdAt,value
2018-01-01T00:00:47.688Z,98974
2018-01-01T00:03:16.877Z,98970
2018-01-01T00:05:46.077Z,98976
2018-01-01T00:08:15.214Z,98977
2018-01-01T00:10:45.852Z,98976
2018-01-01T00:13:15.861Z,98966
2018-01-01T00:15:45.361Z,98960
2018-01-01T00:18:15.247Z,98961
2018-01-01T00:20:45.166Z,98960
2018-01-01T00:23:15.085Z,98952
2018-01-01T00:25:44.956Z,98948
2018-01-01T00:28:14.090Z,98960
2018-01-01T00:30:43.195Z,98964
2018-01-01T00:33:13.027Z,98949
2018-01-01T00:35:42.437Z,98959
2018-01-01T00:38:11.587Z,98950
2018-01-01T00:40:40.863Z,98951
2018-01-01T00:43:10.819Z,98954
2018-01-01T00:45:39.961Z,98960
2018-01-01T00:48:09.265Z,98963
2018-01-01T00:50:38.413Z,98960
2018-01-01T00:53:07.579Z,98963
2018-01-01T00:55:36.780Z,98963
2018-01-01T00:58:05.913Z,98966
2018-01-01T01:00:35.040Z,98956
2018-01-01T01:03:04.445Z,98941
2018-01-01T01:05:33.569Z,98919
2018-01-01T01:08:02.881Z,98906
2018-01-01T01:10:32.829Z,98918
2018-01-01T01:13:01.948Z,98933
2018-01-01T01:15:31.075Z,98947
2018-01-01T01:18:01.739Z,98950
2018-01-01T01:20:30.861Z,98952
2018-01-01T01:22:59.987Z,98950
2018-01-01T01:25:30.193Z,98946
2018-01-01T01:27:59.321Z,98945
2018-01-01T01:30:28.483Z,98947
2018-01-01T01:32:58.218Z,98951
2018-01-01T01:35:28.135Z,98945
2018-01-01T01:37:57.337Z,98947
2018-01-01T01:40:26.526Z,98948
2018-01-01T01:42:55.697Z,98949
2018-01-01T01:45:24.897Z,98948
2018-01-01T01:47:54.913Z,98954
2018-01-01T01:50:24.834Z,98959
2018-01-01T01:52:55.153Z,98960
2018-01-01T01:55:24.341Z,98961
2018-01-01T01:57:53.533Z,98964
2018-01-01T02:00:22.836Z,98966
2018-01-01T02:02:52.034Z,98951
2018-01-01T02:05:21.982Z,98949
2018-01-01T02:07:51.738Z,98954
2018-01-01T02:10:21.064Z,98957
2018-01-01T02:12:50.233Z,98949
2018-01-01T02:15:19.928Z,98953
2018-01-01T02:17:49.150Z,98952
2018-01-01T02:20:18.328Z,98960
2018-01-01T02:22:48.338Z,98962
2018-01-01T02:25:17.454Z,98954
2018-01-01T02:27:46.623Z,98950
2018-01-01T02:30:16.661Z,98956
2018-01-01T02:32:51.579Z,98951
2018-01-01T02:35:21.594Z,98955
2018-01-01T02:37:50.824Z,98957
2018-01-01T02:40:19.988Z,98953
2018-01-01T02:42:50.019Z,98951
2018-01-01T02:45:19.204Z,98952
2018-01-01T02:47:48.313Z,98950
2018-01-01T02:50:17.496Z,98952
2018-01-01T02:52:46.600Z,98950
2018-01-01T02:55:16.491Z,98951
2018-01-01T02:57:46.427Z,98959
2018-01-01T03:00:15.530Z,98964
2018-01-01T03:02:44.625Z,98960
2018-01-01T03:05:13.788Z,98958
2018-01-01T03:07:42.916Z,98953
2018-01-01T03:10:12.009Z,98946
2018-01-01T03:12:41.186Z,98949
2018-01-01T03:15:10.350Z,98950
2018-01-01T03:17:39.501Z,98962
2018-01-01T03:20:08.653Z,98960
2018-01-01T03:22:37.763Z,98957
2018-01-01T03:25:06.885Z,98951
2018-01-01T03:27:36.710Z,98944
2018-01-01T03:30:05.859Z,98954
2018-01-01T03:32:34.953Z,98950
2018-01-01T03:35:04.890Z,98952
2018-01-01T03:37:34.038Z,98953
2018-01-01T03:40:03.150Z,98946
2018-01-01T03:42:33.050Z,98946
2018-01-01T03:45:02.216Z,98945
2018-01-01T03:47:31.319Z,98953
2018-01-01T03:50:00.457Z,98963
2018-01-01T03:52:29.609Z,98949
2018-01-01T03:54:59.531Z,98947
2018-01-01T03:57:30.341Z,98947
2018-01-01T04:00:00.236Z,98940
2018-01-01T04:02:29.347Z,98948
2018-01-01T04:04:58.543Z,98944
2018-01-01T04:07:27.721Z,98944
2018-01-01T04:09:56.858Z,98943
2018-01-01T04:12:26.857Z,98937
2018-01-01T04:14:56.209Z,98947
2018-01-01T04:17:25.438Z,98944
2018-01-01T04:19:55.252Z,98945
2018-01-01T04:22:24.471Z,98935
2018-01-01T04:24:53.646Z,98930
2018-01-01T04:27:23.742Z,98934
2018-01-01T04:29:54.478Z,98938
2018-01-01T04:32:23.696Z,98931
2018-01-01T04:34:53.182Z,98930
2018-01-01T04:37:22.448Z,98936
2018-01-01T04:39:52.469Z,98931
2018-01-01T04:42:22.846Z,98923
2018-01-01T04:44:52.894Z,98923
2018-01-01T04:47:22.173Z,98917
2018-01-01T04:49:51.371Z,98918
2018-01-01T04:52:20.559Z,98917
2018-01-01T04:54:50.441Z,98915
2018-01-01T04:57:20.074Z,98914
2018-01-01T04:59:49.309Z,98906
2018-01-01T05:02:18.483Z,98904
2018-01-01T05:04:47.910Z,98901
2018-01-01T05:07:17.047Z,98909
2018-01-01T05:09:46.200Z,98900
2018-01-01T05:12:16.126Z,98897
2018-01-01T05:14:46.005Z,98894
2018-01-01T05:17:16.138Z,98897
2018-01-01T05:19:45.310Z,98887
2018-01-01T05:22:14.485Z,98884
2018-01-01T05:24:43.686Z,98880
2018-01-01T05:27:13.441Z,98879
2018-01-01T05:29:42.539Z,98878
2018-01-01T05:32:11.729Z,98887
2018-01-01T05:34:42.161Z,98869
2018-01-01T05:37:11.262Z,98874
2018-01-01T05:39:40.408Z,98872
2018-01-01T05:42:10.118Z,98875
2018-01-01T05:44:39.215Z,98867
2018-01-01T05:47:08.341Z,98873
2018-01-01T05:49:37.508Z,98866
2018-01-01T05:52:06.603Z,98859
2018-01-01T05:54:35.771Z,98866
2018-01-01T05:57:05.891Z,98861
2018-01-01T05:59:35.002Z,98862
2018-01-01T06:02:04.114Z,98886
2018-01-01T06:04:34.109Z,98880
2018-01-01T06:07:03.214Z,98883
2018-01-01T06:09:32.318Z,98878
2018-01-01T06:12:01.496Z,98876
2018-01-01T06:14:30.617Z,98881
2018-01-01T06:16:59.717Z,98882
2018-01-01T06:19:29.682Z,98895
2018-01-01T06:21:58.776Z,98906
2018-01-01T06:24:27.999Z,98901
2018-01-01T06:26:57.266Z,98904
2018-01-01T06:29:26.421Z,98913
2018-01-01T06:31:55.921Z,98917
2018-01-01T06:34:25.936Z,98922
2018-01-01T06:36:55.888Z,98932
2018-01-01T06:39:25.034Z,98929
2018-01-01T06:41:54.189Z,98932
2018-01-01T06:44:24.149Z,98933
2018-01-01T06:46:53.360Z,98935
2018-01-01T06:49:22.578Z,98953
2018-01-01T06:51:51.873Z,98947
2018-01-01T06:54:21.116Z,98952
2018-01-01T06:56:50.413Z,98952
2018-01-01T06:59:19.560Z,98959
2018-01-01T07:01:48.661Z,98963
2018-01-01T07:04:18.650Z,98963
2018-01-01T07:06:47.777Z,98966
2018-01-01T07:09:16.909Z,98967
2018-01-01T07:11:46.938Z,98981
2018-01-01T07:14:16.134Z,98983
2018-01-01T07:16:45.230Z,98977
2018-01-01T07:19:15.106Z,98980
2018-01-01T07:21:45.006Z,98981
2018-01-01T07:24:14.187Z,98985
2018-01-01T07:26:43.636Z,98993
2018-01-01T07:29:12.781Z,98986
2018-01-01T07:31:42.713Z,99001
2018-01-01T07:34:13.334Z,99007
2018-01-01T07:36:43.218Z,99010
2018-01-01T07:39:12.380Z,99027
2018-01-01T07:41:43.077Z,99033
2018-01-01T07:44:13.274Z,99043
2018-01-01T07:46:43.163Z,99048
2018-01-01T07:49:12.667Z,99063
2018-01-01T07:51:41.813Z,99052
2018-01-01T07:54:11.704Z,99072
2018-01-01T07:56:41.206Z,99063
2018-01-01T07:59:10.309Z,99063
2018-01-01T08:01:39.406Z,99060
2018-01-01T08:04:08.549Z,99083
2018-01-01T08:06:37.656Z,99094
2018-01-01T08:09:07.533Z,99079
2018-01-01T08:11:36.924Z,99094
2018-01-01T08:14:06.062Z,99096
2018-01-01T08:16:35.170Z,99101
2018-01-01T08:19:04.426Z,99108
2018-01-01T08:21:33.551Z,99122
2018-01-01T08:24:02.666Z,99110
2018-01-01T08:26:31.838Z,99121
2018-01-01T08:29:00.956Z,99130
2018-01-01T08:31:30.126Z,99126
2018-01-01T08:33:59.378Z,99141
2018-01-01T08:36:28.641Z,99126
2018-01-01T08:38:58.531Z,99136
2018-01-01T08:41:27.662Z,99126
2018-01-01T08:43:56.859Z,99135
2018-01-01T08:46:25.951Z,99138
2018-01-01T08:48:55.601Z,99123
2018-01-01T08:51:24.733Z,99149
2018-01-01T08:53:54.068Z,99129
2018-01-01T08:56:24.165Z,99148
2018-01-01T08:58:53.447Z,99150
2018-01-01T09:01:24.220Z,99163
2018-01-01T09:03:53.541Z,99168
2018-01-01T09:06:23.512Z,99177
2018-01-01T09:08:52.868Z,99174
2018-01-01T09:11:22.244Z,99177
2018-01-01T09:13:51.385Z,99173
2018-01-01T09:16:21.373Z,99179
2018-01-01T09:18:50.693Z,99182
2018-01-01T09:21:19.905Z,99204
2018-01-01T09:23:49.215Z,99201
2018-01-01T09:26:18.515Z,99184
2018-01-01T09:28:47.624Z,99224
2018-01-01T09:31:16.749Z,99218
2018-01-01T09:33:45.893Z,99203
2018-01-01T09:36:15.036Z,99247
2018-01-01T09:38:44.959Z,99243
2018-01-01T09:41:15.579Z,99239
2018-01-01T09:43:44.757Z,99242
2018-01-01T09:46:13.896Z,99263
2018-01-01T09:48:43.932Z,99250
2018-01-01T09:51:13.075Z,99255
2018-01-01T09:53:42.189Z,99258
2018-01-01T09:56:12.222Z,99255
2018-01-01T09:58:41.322Z,99263
2018-01-01T10:01:10.442Z,99277
2018-01-01T10:03:40.623Z,99272
2018-01-01T10:06:09.743Z,99271
2018-01-01T10:08:39.635Z,99276
2018-01-01T10:11:08.957Z,99281
2018-01-01T10:13:38.092Z,99289
2018-01-01T10:16:08.028Z,99283
2018-01-01T10:18:37.965Z,99282
2018-01-01T10:21:07.942Z,99282
2018-01-01T10:23:37.078Z,99286
2018-01-01T10:26:07.110Z,99300
2018-01-01T10:28:36.281Z,99296
2018-01-01T10:31:05.413Z,99306
2018-01-01T10:33:34.597Z,99299
2018-01-01T10:36:03.761Z,99296
2018-01-01T10:38:33.694Z,99296
2018-01-01T10:41:02.894Z,99306
2018-01-01T10:43:31.998Z,99311
2018-01-01T10:46:01.113Z,99325
2018-01-01T10:48:30.370Z,99330
2018-01-01T10:50:59.590Z,99329
2018-01-01T10:53:28.684Z,99324
2018-01-01T10:55:57.822Z,99311
2018-01-01T10:58:26.985Z,99326
2018-01-01T11:00:56.895Z,99327
2018-01-01T11:03:26.097Z,99324
2018-01-01T11:05:55.318Z,99323
2018-01-01T11:08:24.490Z,99326
2018-01-01T11:10:53.893Z,99315
2018-01-01T11:13:23.211Z,99332
2018-01-01T11:15:52.493Z,99315
2018-01-01T11:18:21.893Z,99311
2018-01-01T11:20:51.230Z,99321
2018-01-01T11:23:20.410Z,99316
2018-01-01T11:25:49.833Z,99318
2018-01-01T11:28:18.998Z,99313
2018-01-01T11:30:48.198Z,99315
2018-01-01T11:33:17.398Z,99317
2018-01-01T11:35:46.882Z,99322
2018-01-01T11:38:16.791Z,99316
2018-01-01T11:40:46.951Z,99309
2018-01-01T11:43:16.833Z,99321
2018-01-01T11:45:46.001Z,99320
2018-01-01T11:48:15.256Z,99312
2018-01-01T11:50:44.420Z,99323
2018-01-01T11:53:13.528Z,99309
2018-01-01T11:55:42.819Z,99326
2018-01-01T11:58:12.784Z,99327
2018-01-01T12:00:42.827Z,99314
2018-01-01T12:03:12.766Z,99319
2018-01-01T12:05:43.267Z,99325
2018-01-01T12:08:12.646Z,99316
2018-01-01T12:10:42.185Z,99315
2018-01-01T12:13:12.077Z,99307
2018-01-01T12:15:41.275Z,99310
2018-01-01T12:18:10.522Z,99298
2018-01-01T12:20:40.462Z,99311
2018-01-01T12:23:10.345Z,99305
2018-01-01T12:25:39.525Z,99309
2018-01-01T12:28:08.722Z,99306
2018-01-01T12:30:37.878Z,99313
2018-01-01T12:33:07.105Z,99309
2018-01-01T12:35:36.340Z,99306
2018-01-01T12:38:06.341Z,99301
2018-01-01T12:40:36.639Z,99306
2018-01-01T12:43:05.760Z,99302
2018-01-01T12:45:37.322Z,99302
2018-01-01T12:48:12.954Z,99298
2018-01-01T12:50:43.318Z,99293
2018-01-01T12:53:12.889Z,99291
2018-01-01T12:55:44.942Z,99292
2018-01-01T12:58:15.241Z,99300
2018-01-01T13:00:44.967Z,99302
2018-01-01T13:03:16.567Z,99280
2018-01-01T13:05:46.516Z,99304
2018-01-01T13:08:15.984Z,99293
2018-01-01T13:10:45.534Z,99301
2018-01-01T13:13:14.752Z,99287
2018-01-01T13:15:44.912Z,99285
2018-01-01T13:18:16.040Z,99288
2018-01-01T13:20:50.108Z,99290
2018-01-01T13:23:20.309Z,99290
2018-01-01T13:25:52.465Z,99284
2018-01-01T13:28:23.812Z,99286
2018-01-01T13:30:55.845Z,99278
2018-01-01T13:33:30.540Z,99289
2018-01-01T13:36:00.342Z,99284
2018-01-01T13:38:29.636Z,99290
2018-01-01T13:40:59.565Z,99286
2018-01-01T13:43:28.831Z,99298
2018-01-01T13:45:59.711Z,99292
2018-01-01T13:48:28.990Z,99295
2018-01-01T13:50:58.984Z,99300
2018-01-01T13:53:31.549Z,99295
2018-01-01T13:56:01.698Z,99296
2018-01-01T13:58:30.939Z,99298
2018-01-01T14:01:00.646Z,99297
2018-01-01T14:03:30.049Z,99300
2018-01-01T14:05:59.308Z,99302
2018-01-01T14:08:29.167Z,99310
2018-01-01T14:10:58.389Z,99311
2018-01-01T14:13:27.735Z,99315
2018-01-01T14:15:57.319Z,99305
2018-01-01T14:18:26.515Z,99313
2018-01-01T14:20:55.761Z,99311
2018-01-01T14:23:24.951Z,99317
2018-01-01T14:25:54.630Z,99323
2018-01-01T14:28:23.983Z,99326
2018-01-01T14:30:53.718Z,99325
2018-01-01T14:33:22.929Z,99326
2018-01-01T14:35:52.079Z,99317
2018-01-01T14:38:21.314Z,99330
2018-01-01T14:40:51.574Z,99331
2018-01-01T14:43:20.877Z,99325
2018-01-01T14:45:51.216Z,99324
2018-01-01T14:48:21.263Z,99324
2018-01-01T14:50:50.752Z,99322
2018-01-01T14:53:21.273Z,99324
2018-01-01T14:55:50.586Z,99326
2018-01-01T14:58:19.806Z,99332
2018-01-01T15:00:49.061Z,99321
2018-01-01T15:03:18.235Z,99326
2018-01-01T15:05:47.359Z,99331
2018-01-01T15:08:18.944Z,99333
2018-01-01T15:10:48.073Z,99330
2018-01-01T15:13:17.289Z,99335
2018-01-01T15:15:46.732Z,99339
2018-01-01T15:18:15.876Z,99346
2018-01-01T15:20:45.077Z,99339
2018-01-01T15:23:14.299Z,99334
2018-01-01T15:25:43.418Z,99339
2018-01-01T15:28:12.596Z,99339
2018-01-01T15:30:42.531Z,99345
2018-01-01T15:33:11.693Z,99343
2018-01-01T15:35:40.812Z,99337
2018-01-01T15:38:09.953Z,99342
2018-01-01T15:40:39.872Z,99348
2018-01-01T15:43:09.830Z,99346
2018-01-01T15:45:39.385Z,99341
2018-01-01T15:48:08.488Z,99345
2018-01-01T15:50:37.804Z,99341
2018-01-01T15:53:07.804Z,99350
2018-01-01T15:55:36.933Z,99349
2018-01-01T15:58:06.930Z,99352
2018-01-01T16:00:36.674Z,99357
2018-01-01T16:03:05.783Z,99360
2018-01-01T16:05:34.958Z,99371
2018-01-01T16:08:04.255Z,99369
2018-01-01T16:10:33.681Z,99363
2018-01-01T16:13:02.826Z,99367
2018-01-01T16:15:33.051Z,99364
2018-01-01T16:18:02.189Z,99360
2018-01-01T16:20:31.345Z,99362
2018-01-01T16:23:00.801Z,99365
2018-01-01T16:25:29.974Z,99360
2018-01-01T16:27:59.861Z,99356
2018-01-01T16:30:31.309Z,99369
2018-01-01T16:33:02.146Z,99366
2018-01-01T16:35:31.310Z,99369
2018-01-01T16:38:00.545Z,99373
2018-01-01T16:40:30.255Z,99370
2018-01-01T16:43:00.192Z,99378
2018-01-01T16:45:31.353Z,99371
2018-01-01T16:48:00.686Z,99371
2018-01-01T16:50:29.862Z,99373
2018-01-01T16:53:03.039Z,99376
2018-01-01T16:55:33.125Z,99373
2018-01-01T16:58:02.677Z,99371
2018-01-01T17:00:31.892Z,99382
2018-01-01T17:03:01.001Z,99371
2018-01-01T17:05:31.509Z,99376
2018-01-01T17:08:02.707Z,99376
2018-01-01T17:10:32.673Z,99369
2018-01-01T17:13:01.846Z,99377
2018-01-01T17:15:31.182Z,99376
2018-01-01T17:18:00.496Z,99376
2018-01-01T17:20:29.954Z,99376
2018-01-01T17:23:00.065Z,99373
2018-01-01T17:25:30.432Z,99368
2018-01-01T17:27:59.724Z,99369
2018-01-01T17:30:29.264Z,99372
2018-01-01T17:32:58.452Z,99375
2018-01-01T17:35:28.509Z,99376
2018-01-01T17:37:58.866Z,99390
2018-01-01T17:40:28.109Z,99389
2018-01-01T17:42:57.409Z,99387
2018-01-01T17:45:26.647Z,99383
2018-01-01T17:47:56.602Z,99385
2018-01-01T17:50:26.618Z,99385
2018-01-01T17:52:58.374Z,99383
2018-01-01T17:55:28.031Z,99389
2018-01-01T17:57:57.589Z,99389
2018-01-01T18:00:26.896Z,99396
2018-01-01T18:02:56.498Z,99405
2018-01-01T18:05:26.738Z,99404
2018-01-01T18:07:55.923Z,99406
2018-01-01T18:10:25.947Z,99404
2018-01-01T18:12:55.330Z,99405
2018-01-01T18:15:27.809Z,99403
2018-01-01T18:17:57.892Z,99402
2018-01-01T18:20:28.284Z,99400
2018-01-01T18:22:57.659Z,99411
2018-01-01T18:25:26.963Z,99411
2018-01-01T18:27:57.890Z,99416
2018-01-01T18:30:27.043Z,99420
2018-01-01T18:32:57.014Z,99426
2018-01-01T18:35:26.431Z,99426
2018-01-01T18:37:55.960Z,99421
2018-01-01T18:40:25.212Z,99427
2018-01-01T18:42:54.507Z,99432
2018-01-01T18:45:24.936Z,99431
2018-01-01T18:47:55.810Z,99432
2018-01-01T18:50:25.003Z,99435
2018-01-01T18:52:55.057Z,99432
2018-01-01T18:55:25.276Z,99436
2018-01-01T18:57:55.419Z,99434
2018-01-01T19:00:25.928Z,99434
2018-01-01T19:02:55.138Z,99441
2018-01-01T19:05:29.882Z,99443
2018-01-01T19:08:01.728Z,99442
2018-01-01T19:10:34.876Z,99448
2018-01-01T19:13:06.152Z,99446
2018-01-01T19:15:35.470Z,99451
2018-01-01T19:18:04.645Z,99444
2018-01-01T19:20:34.148Z,99453
2018-01-01T19:23:05.408Z,99454
2018-01-01T19:25:35.522Z,99452
2018-01-01T19:28:04.650Z,99453
2018-01-01T19:30:35.624Z,99458
2018-01-01T19:33:05.164Z,99464
2018-01-01T19:35:34.386Z,99467
2018-01-01T19:38:04.016Z,99469
2018-01-01T19:40:33.171Z,99468
2018-01-01T19:43:03.114Z,99469
2018-01-01T19:45:33.172Z,99478
2018-01-01T19:48:02.412Z,99471
2018-01-01T19:50:31.631Z,99474
2018-01-01T19:53:02.085Z,99477
2018-01-01T19:55:31.306Z,99476
2018-01-01T19:58:00.480Z,99477
2018-01-01T20:00:29.716Z,99486
2018-01-01T20:02:59.610Z,99490
2018-01-01T20:05:28.837Z,99495
2018-01-01T20:07:58.664Z,99490
2018-01-01T20:10:29.000Z,99497
2018-01-01T20:13:04.349Z,99501
2018-01-01T20:15:34.633Z,99493
2018-01-01T20:18:05.888Z,99495
2018-01-01T20:20:41.195Z,99498
2018-01-01T20:23:11.978Z,99500
2018-01-01T20:25:42.806Z,99500
2018-01-01T20:28:13.426Z,99496
2018-01-01T20:30:42.603Z,99499
2018-01-01T20:33:11.997Z,99500
2018-01-01T20:35:41.170Z,99502
2018-01-01T20:38:10.413Z,99505
2018-01-01T20:40:41.338Z,99502
2018-01-01T20:43:10.630Z,99499
2018-01-01T20:45:40.672Z,99499
2018-01-01T20:48:09.984Z,99498
2018-01-01T20:50:40.621Z,99496
2018-01-01T20:53:10.846Z,99488
2018-01-01T20:55:40.926Z,99489
2018-01-01T20:58:11.220Z,99490
2018-01-01T21:00:41.288Z,99487
2018-01-01T21:03:10.498Z,99492
2018-01-01T21:05:39.769Z,99499
2018-01-01T21:08:10.869Z,99495
2018-01-01T21:10:41.758Z,99502
2018-01-01T21:13:10.960Z,99499
2018-01-01T21:15:40.170Z,99494
2018-01-01T21:18:09.347Z,99501
2018-01-01T21:20:38.695Z,99507
2018-01-01T21:23:09.307Z,99504
2018-01-01T21:25:38.578Z,99507
2018-01-01T21:28:07.804Z,99510
2018-01-01T21:30:36.913Z,99513
2018-01-01T21:33:06.107Z,99514
2018-01-01T21:35:36.864Z,99512
2018-01-01T21:38:11.799Z,99517
2018-01-01T21:40:44.180Z,99517
2018-01-01T21:43:14.562Z,99516
2018-01-01T21:45:44.354Z,99523
2018-01-01T21:48:13.514Z,99526
2018-01-01T21:50:45.887Z,99523
2018-01-01T21:53:15.047Z,99524
2018-01-01T21:55:44.270Z,99528
2018-01-01T21:58:15.609Z,99534
2018-01-01T22:00:46.732Z,99544
2018-01-01T22:03:16.974Z,99536
2018-01-01T22:05:47.341Z,99552
2018-01-01T22:08:16.469Z,99552
2018-01-01T22:10:47.075Z,99553
2018-01-01T22:13:20.393Z,99552
2018-01-01T22:15:53.019Z,99553
2018-01-01T22:18:22.547Z,99556
2018-01-01T22:20:51.978Z,99563
2018-01-01T22:23:22.140Z,99571
2018-01-01T22:25:53.371Z,99579
2018-01-01T22:28:22.806Z,99576
2018-01-01T22:30:53.028Z,99578
2018-01-01T22:33:23.198Z,99579
2018-01-01T22:35:53.890Z,99580
2018-01-01T22:38:23.394Z,99583
2018-01-01T22:40:52.810Z,99587
2018-01-01T22:43:23.056Z,99586
2018-01-01T22:45:53.239Z,99579
2018-01-01T22:48:22.849Z,99586
2018-01-01T22:50:52.303Z,99592
2018-01-01T22:53:21.673Z,99596
2018-01-01T22:55:51.902Z,99595
2018-01-01T22:58:21.575Z,99600
2018-01-01T23:00:51.200Z,99600
2018-01-01T23:03:20.671Z,99602
2018-01-01T23:05:50.118Z,99608
2018-01-01T23:08:20.403Z,99606
2018-01-01T23:10:49.733Z,99612
2018-01-01T23:13:20.133Z,99613
2018-01-01T23:15:49.376Z,99612
2018-01-01T23:18:18.512Z,99612
2018-01-01T23:20:47.686Z,99613
2018-01-01T23:23:16.778Z,99617
2018-01-01T23:25:45.966Z,99620
2018-01-01T23:28:15.221Z,99622
2018-01-01T23:30:44.439Z,99626
2018-01-01T23:33:14.420Z,99632
2018-01-01T23:35:43.575Z,99631
2018-01-01T23:38:12.682Z,99635
2018-01-01T23:40:41.835Z,99634
2018-01-01T23:43:11.062Z,99636
2018-01-01T23:45:40.210Z,99638
2018-01-01T23:48:09.303Z,99641
2018-01-01T23:50:39.511Z,99646
2018-01-01T23:53:08.602Z,99649
2018-01-01T23:55:37.778Z,99640
2018-01-01T23:58:07.719Z,99637
